Last 30 Days

Top Stn/Summit - 11,053ft

Hourly Data | America/Los_Angeles
as of 3/5/24 5:11 AM PST
Date & Time Temp (°F) WindChill (°F) RH (%) Dew Pt (°F) Wet Bulb (°F) Wind Spd (mph) Wind Dir (°) Wind Gust (mph) Wind Gst Dir (°) Daily Min Temp (°F) Daily Max Temp (°F) Daily Max Wind (mph)
3/5/24 - 0500 12.8 -10.5 93 11.2 12.5 37.9 SSW | 195 43.9 SSW | 193 12.1 13.2 44.2
3/5/24 - 0400 13.0 -10.1 93 11.5 12.8 37.8 SSW | 194 44.2 SSW | 194 12.1 13.2 44.2
3/5/24 - 0300 12.8 -9.6 93 11.2 12.5 34.1 SSW | 193 40.9 SSW | 196 12.1 12.9 40.9
3/5/24 - 0200 12.6 -9.6 93 11.0 12.3 33.2 S | 191 37.4 SSW | 193 12.1 12.8 39.8
3/5/24 - 0100 12.2 -10.2 93 10.5 12.0 33.3 SSW | 192 39.8 SSW | 198 12.1 12.4 39.8
3/5/24 - 0000 12.8 -9.9 93 11.2 12.5 35.5 SSW | 192 45.6 SSW | 195 5.5 15.2 78.0
3/4/24 - 2300 14.2 -8.6 94 12.7 13.9 38.5 S | 188 44.7 SSW | 193 5.5 15.2 78.0
3/4/24 - 2200 14.9 -7.3 94 13.6 14.6 37.0 S | 188 45.5 SSW | 198 5.5 15.2 78.0
3/4/24 - 2100 15.2 -7.4 94 13.8 14.8 38.9 S | 190 48.0 S | 191 5.5 15.2 78.0
3/4/24 - 2000 14.9 -6.7 94 13.6 14.6 34.2 SSW | 194 44.8 SSW | 192 5.5 15.1 78.0
3/4/24 - 1900 14.6 -5.5 94 13.2 14.3 28.2 S | 186 38.9 SSW | 198 5.5 14.8 78.0
3/4/24 - 1800 14.4 -6.5 94 13.0 14.1 30.7 S | 186 42.1 SSW | 198 5.5 14.5 78.0
3/4/24 - 1700 13.8 -8.7 94 12.4 13.6 36.5 S | 191 46.7 S | 187 5.5 14.4 78.0
3/4/24 - 1600 13.0 -10.7 93 11.4 12.7 40.0 SSW | 202 47.7 SSW | 208 5.5 13.4 78.0
3/4/24 - 1500 12.9 -11.4 93 11.2 12.6 43.1 SSW | 207 49.1 SSW | 212 5.5 13.4 78.0
3/4/24 - 1400 13.2 -10.8 93 11.6 12.9 42.0 SSW | 200 49.9 SSW | 195 5.5 13.4 78.0
3/4/24 - 1300 12.3 -11.1 93 10.7 12.0 37.5 SSW | 199 47.3 SSW | 208 5.5 13.2 78.0
3/4/24 - 1200 8.9 -15.6 91 6.9 8.8 36.8 SSW | 197 48.9 SSW | 203 5.5 10.9 78.0
3/4/24 - 1100 7.8 -17.0 90 5.6 7.7 36.2 SSW | 197 45.3 SSW | 193 5.5 8.2 78.0
3/4/24 - 1000 7.8 -18.8 91 5.7 7.7 44.0 SSW | 201 55.5 SSW | 205 5.5 8.2 78.0
3/4/24 - 0900 6.2 -21.3 90 3.9 6.1 45.0 SSW | 196 56.0 SSW | 198 5.5 8.0 78.0
3/4/24 - 0800 6.0 -22.1 90 3.6 5.9 47.4 SSW | 196 57.3 SSW | 198 5.5 8.0 78.0
3/4/24 - 0700 6.1 -22.7 90 3.8 6.0 50.8 S | 176 61.6 S | 172 5.9 8.0 78.0
3/4/24 - 0600 7.0 -21.1 90 4.8 6.9 49.5 S | 183 63.1 SSW | 196 6.5 8.0 78.0
3/4/24 - 0500 7.4 -18.9 91 5.3 7.3 42.0 S | 189 57.2 S | 187 7.3 8.0 78.0
3/4/24 - 0400 7.6 -19.5 91 5.5 7.5 46.4 S | 186 63.5 S | 180 7.5 8.0 78.0
3/4/24 - 0300 7.9 -18.3 91 5.8 7.8 42.6 S | 184 58.5 SSW | 197 7.6 8.0 78.0
3/4/24 - 0200 7.8 -19.0 91 5.7 7.7 45.2 S | 180 64.1 S | 188 7.6 8.0 78.0
3/4/24 - 0100 7.7 -21.6 91 5.6 7.6 57.6 S | 183 78.0 S | 189 7.6 7.8 78.0
3/4/24 - 0000 7.5 -19.2 91 5.4 7.4 44.2 S | 186 57.2 S | 176 5.8 9.7 99.4
3/3/24 - 2300 7.6 -20.3 91 5.4 7.5 49.7 S | 188 59.7 SSW | 192 5.8 9.7 99.4
3/3/24 - 2200 7.9 -20.1 91 5.8 7.8 51.2 S | 187 66.1 S | 187 5.8 9.7 99.4
3/3/24 - 2100 8.2 -22.7 91 6.1 8.0 68.9 S | 186 90.0 S | 189 5.8 9.7 99.4
3/3/24 - 2000 8.1 -21.1 91 6.0 8.0 58.7 S | 184 99.4 S | 186 5.8 9.7 99.4
3/3/24 - 1900 8.1 -20.7 91 6.0 8.0 56.1 S | 186 74.5 SSW | 193 5.8 9.7 88.3
3/3/24 - 1800 8.7 -21.6 91 6.6 8.5 66.4 S | 180 88.3 S | 175 5.8 9.7 88.3
3/3/24 - 1700 9.1 -21.0 91 7.1 8.9 66.8 S | 177 86.3 S | 178 5.8 9.7 87.5
3/3/24 - 1600 9.0 -21.1 91 7.0 8.8 66.8 S | 181 79.1 S | 174 5.8 9.7 87.5
3/3/24 - 1500 9.1 -21.7 92 7.1 8.9 71.4 S | 184 80.9 SSW | 195 5.8 9.7 87.5
3/3/24 - 1400 8.9 -20.3 92 6.9 8.7 60.4 S | 185 75.6 SSW | 199 5.8 9.7 87.5
3/3/24 - 1300 8.5 -21.6 92 6.6 8.4 65.3 S | 179 79.0 SSW | 204 5.8 9.7 87.5
3/3/24 - 1200 8.2 -21.9 91 6.2 8.1 64.2 S | 180 81.2 S | 175 5.8 9.7 87.5
3/3/24 - 1100 7.9 -20.7 91 5.8 7.8 54.5 S | 182 87.5 S | 179 5.8 9.7 87.5
3/3/24 - 1000 7.7 -18.6 91 5.6 7.6 42.5 S | 182 53.6 S | 185 5.8 9.7 86.0
3/3/24 - 0900 7.7 -20.5 91 5.6 7.6 51.5 S | 180 70.4 S | 180 5.8 9.7 86.0
3/3/24 - 0800 7.5 -22.4 91 5.4 7.4 61.1 S | 178 72.4 S | 180 5.8 9.7 86.0
3/3/24 - 0700 6.9 -23.8 90 4.7 6.9 64.7 S | 187 75.7 SSW | 192 5.8 9.7 86.0
3/3/24 - 0600 6.5 -25.6 90 4.2 6.4 72.2 SSW | 193 84.9 S | 190 5.8 9.7 86.0
3/3/24 - 0500 5.9 -0.6 90 3.6 5.8 3.2 S | 183 86.0 S | 183 5.8 9.7 86.0
3/3/24 - 0400 6.2 - 90 3.9 6.2 0.4 S | 180 0.4 S | 191 5.9 9.7 0.5
3/3/24 - 0300 7.0 - 90 4.7 6.9 0.4 S | 179 0.4 SSE | 167 6.2 9.7 0.5
3/3/24 - 0200 8.2 - 91 6.0 8.0 0.4 S | 176 0.5 S | 186 7.7 9.7 0.5
3/3/24 - 0100 9.3 - 91 7.2 9.1 0.4 S | 174 0.4 SSE | 166 8.7 9.7 0.4
3/3/24 - 0000 9.4 - 92 7.5 9.3 0.4 S | 172 0.4 S | 183 5.4 15.6 0.5
3/2/24 - 2300 8.5 - 91 6.5 8.4 0.4 S | 172 0.4 S | 180 5.4 15.6 0.5
3/2/24 - 2200 8.0 - 91 5.8 7.8 0.4 S | 182 0.4 SSW | 192 5.4 15.6 0.5
3/2/24 - 2100 7.8 - 91 5.7 7.7 0.4 S | 188 0.4 S | 185 5.4 15.6 0.5
3/2/24 - 2000 6.7 - 90 4.6 6.7 0.4 S | 181 0.4 SSE | 159 5.4 15.6 0.5
3/2/24 - 1900 5.7 - 90 3.4 5.7 0.4 S | 184 0.4 S | 187 5.4 15.6 0.5
3/2/24 - 1800 6.0 - 90 3.7 5.9 0.4 S | 186 0.4 S | 173 5.4 15.6 0.5
3/2/24 - 1700 6.2 - 90 3.9 6.1 0.4 S | 182 0.4 S | 188 6.0 15.6 0.5
3/2/24 - 1600 6.7 - 90 4.5 6.6 0.4 S | 180 0.4 S | 189 6.5 15.6 0.5
3/2/24 - 1500 6.8 - 90 4.6 6.7 0.4 S | 180 0.4 S | 181 6.6 15.6 0.5
3/2/24 - 1400 7.6 - 91 5.5 7.5 0.4 S | 180 0.4 S | 175 6.9 15.6 0.5
3/2/24 - 1300 7.1 - 91 4.9 7.0 0.4 S | 178 0.4 SSE | 163 6.9 15.6 0.5
3/2/24 - 1200 7.9 - 91 5.8 7.8 0.4 W | 276 0.4 NNW | 338 7.3 15.6 0.5
3/2/24 - 1100 8.1 - 91 6.0 8.0 0.4 NW | 304 0.4 NNW | 344 7.3 15.6 0.5
3/2/24 - 1000 8.0 - 91 6.0 7.9 0.4 NW | 323 0.4 SSW | 196 7.3 15.6 0.5
3/2/24 - 0900 7.7 - 91 5.6 7.6 0.4 NNW | 338 0.4 NNW | 338 7.3 15.6 0.5
3/2/24 - 0800 8.0 - 90 5.7 7.8 0.4 NNW | 338 0.4 NNW | 338 7.3 15.6 0.5
3/2/24 - 0700 9.6 - 91 7.6 9.4 0.4 NNW | 338 0.4 NNW | 338 9.2 15.6 0.5
3/2/24 - 0600 11.0 - 92 9.1 10.8 0.4 NW | 311 0.5 NNW | 339 9.7 15.6 0.5
3/2/24 - 0500 13.6 - 93 12.0 13.2 0.4 SSW | 192 0.5 S | 183 12.0 15.6 0.5
3/2/24 - 0400 14.9 - 94 13.5 14.6 0.4 S | 184 0.5 S | 182 14.4 15.6 0.5
3/2/24 - 0300 14.9 - 94 13.6 14.6 0.4 S | 186 0.5 S | 186 14.8 15.6 0.5
3/2/24 - 0200 15.2 - 95 14.0 14.9 0.4 S | 191 0.4 S | 191 15.0 15.6 0.4
3/2/24 - 0100 15.2 - 95 14.0 14.9 0.4 NW | 312 0.4 NNW | 337 15.0 15.4 0.4
3/2/24 - 0000 14.8 - 94 13.5 14.5 0.4 NNW | 337 0.5 NNW | 337 14.3 18.8 113.8
3/1/24 - 2300 15.2 - 94 13.9 14.9 0.4 NNW | 337 0.4 NNW | 337 14.3 18.8 113.8
3/1/24 - 2200 14.9 -0.8 95 13.6 14.6 16.2 NNW | 337 45.1 NNW | 337 14.3 18.8 113.8
3/1/24 - 2100 14.7 -4.3 94 13.4 14.4 24.5 NNW | 337 41.4 NNW | 337 14.3 18.8 113.8
3/1/24 - 2000 14.4 -5.1 94 13.0 14.1 26.0 NNW | 337 37.7 NNW | 336 14.3 18.8 113.8
3/1/24 - 1900 15.2 -5.1 94 13.9 14.9 29.7 NNW | 336 45.3 NNW | 336 14.5 18.8 113.8
3/1/24 - 1800 15.5 -9.3 95 14.3 15.2 50.7 WNW | 284 103.9 S | 191 14.8 18.8 113.8
3/1/24 - 1700 16.3 -11.3 95 15.1 16.0 73.4 S | 190 113.8 SSW | 198 15.0 18.8 113.8
3/1/24 - 1600 18.1 -5.2 96 17.2 17.8 48.6 S | 190 109.5 SSW | 196 15.0 18.8 112.7
3/1/24 - 1500 18.6 -7.2 96 17.7 18.3 66.8 S | 190 103.0 SSW | 196 15.0 18.8 112.7
3/1/24 - 1400 18.5 -7.9 96 17.6 18.2 71.1 S | 190 112.7 SSW | 212 15.0 18.8 112.7
3/1/24 - 1300 18.4 -6.6 96 17.6 18.2 61.2 S | 188 90.5 SSW | 195 15.0 18.6 102.3
3/1/24 - 1200 18.4 -7.6 96 17.6 18.1 68.8 SSW | 194 99.5 SSW | 213 15.0 18.6 102.3
3/1/24 - 1100 17.7 -7.9 96 16.8 17.4 62.7 S | 190 81.6 SSW | 197 15.0 18.3 102.3
3/1/24 - 1000 17.0 -10.0 96 16.0 16.7 70.9 SSW | 193 100.4 SSW | 208 15.0 17.5 102.3
3/1/24 - 0900 16.5 -9.7 96 15.4 16.2 63.4 S | 191 88.2 SSW | 208 15.0 16.9 102.3
3/1/24 - 0800 15.8 -11.8 95 14.6 15.5 70.8 SSW | 197 102.3 SSW | 202 15.0 16.0 102.3
3/1/24 - 0700 15.3 -9.7 95 14.0 15.0 51.7 S | 186 79.6 SSW | 200 15.0 15.8 96.4
3/1/24 - 0600 15.1 -10.6 94 13.8 14.8 55.3 S | 191 78.4 SSW | 197 15.0 15.8 96.4
3/1/24 - 0500 15.3 -12.3 95 14.0 15.0 69.0 SSW | 197 96.4 SSW | 201 15.0 15.8 96.4
3/1/24 - 0400 15.2 -12.2 94 13.9 14.8 67.4 SSW | 195 94.3 SSW | 202 15.0 15.8 94.3
3/1/24 - 0300 15.4 -12.0 95 14.1 15.1 67.7 SSW | 196 90.0 SSW | 192 15.3 15.8 90.9
3/1/24 - 0200 15.5 -12.0 95 14.3 15.2 69.3 SSW | 197 90.9 SSW | 210 15.3 15.8 90.9
3/1/24 - 0100 15.6 -10.5 95 14.3 15.3 59.5 SSW | 194 75.3 SSW | 199 15.4 15.8 75.3
3/1/24 - 0000 16.2 -9.6 95 15.0 15.9 59.2 S | 184 77.4 S | 181 15.8 20.8 96.4
2/29/24 - 2300 17.0 -9.1 95 15.9 16.6 63.7 S | 179 84.6 S | 179 15.8 20.8 96.4
2/29/24 - 2200 17.8 -8.1 96 16.8 17.5 64.7 S | 180 91.5 S | 178 15.8 20.8 96.4
2/29/24 - 2100 18.0 -7.3 96 17.0 17.6 61.2 S | 183 78.7 S | 186 15.8 20.8 96.4
2/29/24 - 2000 18.2 -7.6 96 17.2 17.8 65.2 S | 186 83.1 S | 186 15.8 20.8 96.4
2/29/24 - 1900 18.8 -6.9 96 17.9 18.5 66.9 S | 188 94.3 S | 171 15.8 20.8 96.4
2/29/24 - 1800 19.0 -7.7 97 18.2 18.8 76.3 S | 188 96.4 S | 181 15.8 20.8 96.4
2/29/24 - 1700 19.3 -6.5 97 18.5 19.0 68.9 S | 186 88.0 S | 188 15.8 20.8 95.6
2/29/24 - 1600 19.5 -5.7 97 18.8 19.2 66.6 S | 186 85.8 S | 177 15.8 20.8 95.6
2/29/24 - 1500 20.2 -4.5 97 19.5 19.9 64.6 S | 183 81.1 S | 180 15.8 20.8 95.6
2/29/24 - 1400 20.6 -4.5 97 19.9 20.3 68.7 S | 185 95.6 SSW | 192 15.8 20.8 95.6
2/29/24 - 1300 20.4 -3.9 98 19.8 20.1 62.4 S | 186 79.8 SSW | 195 15.8 20.8 79.8
2/29/24 - 1200 19.6 -3.5 97 18.9 19.3 51.7 S | 185 68.0 S | 183 15.8 20.2 72.0
2/29/24 - 1100 18.6 -4.8 97 17.8 18.3 50.8 S | 184 64.7 S | 188 15.8 19.2 72.0
2/29/24 - 1000 17.1 -7.2 96 16.1 16.8 51.9 S | 183 72.0 S | 187 15.8 17.8 72.0
2/29/24 - 0900 16.3 -7.2 95 15.2 16.0 46.2 S | 185 57.5 S | 183 15.8 17.3 62.5
2/29/24 - 0800 16.1 -7.8 95 15.0 15.8 47.4 S | 185 55.7 S | 185 15.8 17.3 62.5
2/29/24 - 0700 15.9 -8.0 95 14.8 15.6 47.4 S | 185 55.0 S | 186 15.8 17.3 62.5
2/29/24 - 0600 15.9 -9.1 95 14.7 15.6 53.3 S | 185 62.5 S | 186 15.8 17.3 62.5
2/29/24 - 0500 16.0 -8.1 95 14.8 15.7 48.4 S | 185 60.2 S | 186 15.8 17.3 60.2
2/29/24 - 0400 16.1 -5.8 95 15.0 15.8 37.7 S | 184 50.1 S | 189 15.9 17.3 50.1
2/29/24 - 0300 16.5 -4.2 95 15.4 16.2 32.8 S | 186 40.0 S | 189 16.0 17.3 46.8
2/29/24 - 0200 16.3 -4.6 95 15.2 16.0 33.6 S | 187 40.4 S | 187 16.0 17.3 46.8
2/29/24 - 0100 16.8 -5.5 95 15.6 16.4 40.6 S | 187 46.8 S | 186 16.3 17.3 46.8
2/29/24 - 0000 18.2 -3.6 96 17.2 17.9 40.9 S | 186 46.3 SSW | 193 15.9 21.8 49.1
2/28/24 - 2300 19.2 -2.0 97 18.4 18.8 39.8 S | 186 45.5 S | 188 15.9 21.8 49.1
2/28/24 - 2200 19.5 -1.7 97 18.8 19.2 40.6 S | 184 47.5 S | 185 15.9 21.8 49.1
2/28/24 - 2100 19.9 -0.7 97 19.2 19.6 38.4 S | 184 45.2 S | 184 15.9 21.8 49.1
2/28/24 - 2000 20.4 -0.3 97 19.7 20.1 39.4 S | 185 45.8 S | 186 15.9 21.8 49.1
2/28/24 - 1900 21.4 1.4 98 20.9 21.1 38.5 S | 185 47.7 SSW | 196 15.9 21.8 49.1
2/28/24 - 1800 21.4 1.2 99 21.1 21.2 38.9 S | 187 49.1 SSW | 203 15.9 21.8 49.1
2/28/24 - 1700 20.7 0.8 92 18.6 20.0 36.2 S | 186 45.0 S | 189 15.9 21.8 48.2
2/28/24 - 1600 21.1 1.5 88 18.2 20.2 36.0 S | 184 48.2 S | 191 15.9 21.8 48.2
2/28/24 - 1500 21.3 1.7 86 17.7 20.1 35.7 S | 183 46.8 S | 189 15.9 21.8 46.8
2/28/24 - 1400 21.4 2.3 87 18.2 20.4 34.3 S | 181 46.8 S | 185 15.9 21.8 46.8
2/28/24 - 1300 21.4 2.6 81 16.4 19.9 32.3 S | 183 43.8 S | 181 15.9 21.8 43.8
2/28/24 - 1200 21.5 6.0 81 16.7 20.1 20.6 S | 182 34.4 S | 186 15.9 21.8 34.7
2/28/24 - 1100 20.7 3.3 82 16.1 19.4 26.3 S | 190 33.7 SSW | 196 15.9 21.6 34.7
2/28/24 - 1000 19.5 1.3 82 15.0 18.2 27.4 S | 190 34.4 SSW | 192 15.9 20.2 34.7
2/28/24 - 0900 18.6 -0.4 81 13.7 17.3 29.1 SSW | 194 32.9 SSW | 195 15.9 19.1 34.7
2/28/24 - 0800 17.7 -1.9 83 13.5 16.6 30.4 SSW | 193 34.7 SSW | 194 15.9 18.5 34.7
2/28/24 - 0700 16.8 -3.1 85 13.2 15.9 30.3 SSW | 194 33.9 SSW | 194 15.9 18.5 33.9
2/28/24 - 0600 16.5 -3.0 84 12.6 15.5 28.0 SSW | 196 32.2 SSW | 194 15.9 18.5 32.2
2/28/24 - 0500 16.4 -3.4 85 12.6 15.4 29.2 SSW | 199 31.7 SSW | 196 15.9 18.5 31.7
2/28/24 - 0400 16.5 -2.4 84 12.6 15.5 26.2 SSW | 196 31.4 SSW | 198 15.9 18.5 31.4
2/28/24 - 0300 17.2 -0.2 84 13.3 16.2 22.4 SSW | 198 25.4 SSW | 196 17.0 18.5 27.8
2/28/24 - 0200 17.8 -0.1 83 13.5 16.6 24.3 SSW | 197 27.8 SSW | 198 17.2 18.5 27.8
2/28/24 - 0100 18.4 1.6 83 14.2 17.2 21.4 SSW | 192 24.4 SSW | 195 18.0 18.5 24.4
2/28/24 - 0000 18.4 1.9 84 14.3 17.3 20.8 S | 191 23.7 SSW | 192 12.4 19.6 80.3
2/27/24 - 2300 18.4 2.8 84 14.5 17.3 18.3 SSW | 195 22.3 SSW | 193 12.4 19.6 80.3
2/27/24 - 2200 18.7 7.1 88 15.8 17.9 10.3 S | 186 16.8 S | 189 12.4 19.6 80.3
2/27/24 - 2100 18.1 11.3 90 15.8 17.4 4.5 WSW | 253 13.8 NNW | 327 12.4 19.5 80.3
2/27/24 - 2000 16.5 -0.6 93 14.8 16.0 20.6 NNW | 330 25.2 NNW | 330 12.4 18.1 80.3
2/27/24 - 1900 16.7 -1.5 95 15.4 16.3 24.1 NNW | 337 28.0 NNW | 344 12.4 18.1 80.3
2/27/24 - 1800 17.0 -0.5 95 15.8 16.6 22.0 NNW | 335 26.2 NNW | 328 12.4 18.1 80.3
2/27/24 - 1700 17.4 0.5 95 16.2 17.0 20.8 NNW | 336 26.3 NNW | 342 12.4 18.1 80.3
2/27/24 - 1600 17.4 -0.5 95 16.2 17.0 23.8 NNW | 335 29.9 NNW | 338 12.4 18.1 80.3
2/27/24 - 1500 17.8 -1.5 96 16.8 17.5 29.5 NNW | 329 41.4 N | 349 12.4 18.1 80.3
2/27/24 - 1400 17.9 -2.2 96 16.8 17.6 32.5 WNW | 303 47.4 NNW | 348 12.4 18.0 80.3
2/27/24 - 1300 17.3 -1.2 95 16.1 16.9 25.7 NW | 305 39.8 SE | 124 12.4 17.7 80.3
2/27/24 - 1200 17.1 0.6 95 15.9 16.7 19.4 NW | 323 34.0 NNW | 344 12.4 17.5 80.3
2/27/24 - 1100 17.0 1.3 95 15.9 16.7 17.6 NW | 314 26.3 NNW | 343 12.4 17.2 80.3
2/27/24 - 1000 16.1 3.1 95 14.8 15.8 11.5 ESE | 104 22.2 SE | 124 12.4 17.2 80.3
2/27/24 - 0900 15.0 -4.1 94 13.6 14.6 25.1 ESE | 118 47.5 ESE | 118 12.4 17.2 80.3
2/27/24 - 0800 12.9 -4.2 93 11.4 12.6 18.0 SE | 133 52.3 ESE | 118 12.4 17.2 80.3
2/27/24 - 0700 12.8 -8.0 93 11.1 12.5 28.0 SSE | 149 49.1 SE | 146 12.6 17.2 80.3
2/27/24 - 0600 14.2 -5.7 93 12.7 13.9 27.2 SSE | 166 64.9 SE | 143 13.1 17.2 80.3
2/27/24 - 0500 15.8 -3.9 95 14.5 15.5 28.2 S | 190 46.3 SSW | 200 15.3 17.2 80.3
2/27/24 - 0400 16.3 -7.4 95 15.1 16.0 46.9 S | 181 60.5 S | 189 15.9 17.2 80.3
2/27/24 - 0300 16.5 -7.2 95 15.3 16.2 47.1 S | 183 63.2 S | 189 15.9 17.2 80.3
2/27/24 - 0200 16.2 -8.2 95 15.0 15.9 50.6 S | 180 66.6 SSW | 194 15.9 17.2 80.3
2/27/24 - 0100 16.7 -9.2 95 15.6 16.4 62.2 S | 184 80.3 S | 187 16.0 17.2 80.3
2/27/24 - 0000 17.3 -9.2 96 16.3 17.0 67.9 S | 188 81.8 S | 189 17.0 20.6 90.2
2/26/24 - 2300 18.3 -7.8 96 17.4 18.0 68.2 S | 183 85.0 S | 188 17.0 20.6 90.2
2/26/24 - 2200 19.3 -6.3 97 18.5 19.0 68.1 S | 189 84.5 SSW | 192 17.0 20.6 90.2
2/26/24 - 2100 19.8 -6.2 97 19.0 19.4 72.9 S | 190 86.8 S | 191 17.0 20.6 90.2
2/26/24 - 2000 20.1 -4.0 97 19.4 19.8 59.2 S | 184 85.6 S | 182 17.0 20.6 90.2
2/26/24 - 1900 20.3 -2.2 97 19.7 20.0 50.2 S | 183 68.7 S | 188 17.0 20.6 90.2
2/26/24 - 1800 20.3 -1.4 97 19.6 20.0 44.8 S | 184 63.6 S | 185 17.0 20.6 90.2
2/26/24 - 1700 20.4 -2.4 97 19.8 20.1 51.7 S | 183 70.3 S | 190 17.0 20.6 90.2
2/26/24 - 1600 19.9 -3.1 97 19.2 19.6 51.7 S | 182 69.0 S | 186 17.0 20.1 90.2
2/26/24 - 1500 19.2 -5.4 97 18.5 18.9 61.0 S | 184 81.3 SSW | 193 17.0 19.4 90.2
2/26/24 - 1400 18.7 -7.8 96 17.9 18.4 73.4 S | 190 90.2 S | 191 17.0 19.4 90.2
2/26/24 - 1300 18.9 -7.4 97 18.1 18.6 71.9 S | 187 84.5 SSW | 194 17.0 19.4 84.5
2/26/24 - 1200 17.8 -7.6 96 16.9 17.5 61.6 S | 183 80.0 S | 184 17.0 19.2 83.5
2/26/24 - 1100 18.3 -5.0 96 17.5 18.0 49.6 S | 183 73.3 S | 181 17.0 19.2 83.5
2/26/24 - 1000 18.8 -6.2 96 18.0 18.5 62.0 S | 186 83.5 SSW | 194 17.0 19.2 83.5
2/26/24 - 0900 19.1 -4.8 97 18.3 18.8 54.8 S | 187 63.3 S | 186 17.0 19.2 65.8
2/26/24 - 0800 18.0 -6.4 96 17.1 17.7 55.6 S | 186 65.7 S | 184 17.0 18.9 65.8
2/26/24 - 0700 17.2 -7.5 96 16.2 16.9 55.6 S | 186 65.8 S | 186 17.0 18.6 65.8
2/26/24 - 0600 17.6 -6.2 96 16.6 17.3 50.9 S | 183 59.7 S | 186 17.4 18.6 61.4
2/26/24 - 0500 17.8 -5.8 96 16.8 17.5 49.7 S | 183 59.4 S | 184 17.7 18.6 61.4
2/26/24 - 0400 18.0 -5.9 96 17.1 17.7 52.5 S | 183 61.4 S | 184 17.8 18.6 61.4
2/26/24 - 0300 18.3 -5.4 96 17.4 18.0 51.4 S | 185 59.8 S | 190 18.0 18.6 59.8
2/26/24 - 0200 18.5 -4.8 96 17.6 18.2 50.0 S | 186 58.2 S | 178 18.0 18.6 58.2
2/26/24 - 0100 18.2 -4.6 96 17.3 17.9 46.2 S | 186 53.1 S | 188 18.0 18.4 53.1
2/26/24 - 0000 19.0 -2.9 96 18.1 18.6 43.0 S | 184 51.5 S | 184 17.9 24.6 51.5
2/25/24 - 2300 19.8 -1.5 97 19.1 19.6 41.7 S | 184 50.2 S | 183 17.9 24.6 51.3
2/25/24 - 2200 20.9 0.1 98 20.3 20.6 41.2 S | 185 51.3 S | 186 17.9 24.6 51.3
2/25/24 - 2100 21.4 1.1 98 20.9 21.2 39.9 S | 186 47.4 S | 175 17.9 24.6 51.1
2/25/24 - 2000 21.3 0.5 98 20.8 21.0 41.9 S | 187 48.2 S | 188 17.9 24.6 51.1
2/25/24 - 1900 21.5 0.9 98 21.1 21.3 41.5 S | 186 51.1 S | 186 17.9 24.6 51.1
2/25/24 - 1800 21.4 1.3 96 20.5 21.0 38.2 S | 186 49.6 S | 191 17.9 24.6 49.6
2/25/24 - 1700 23.1 6.0 81 18.0 21.5 28.1 S | 185 39.2 S | 186 17.9 24.6 39.2
2/25/24 - 1600 23.6 7.0 73 16.2 21.4 26.7 S | 184 36.8 S | 186 17.9 24.6 38.1
2/25/24 - 1500 24.2 8.4 63 13.2 21.1 24.4 S | 183 35.9 S | 191 17.9 24.6 38.1
2/25/24 - 1400 23.7 7.6 61 12.3 20.6 25.0 S | 187 36.4 S | 188 17.9 24.4 38.1
2/25/24 - 1300 23.5 6.4 57 10.4 20.1 28.8 S | 191 35.2 S | 187 17.9 23.8 38.1
2/25/24 - 1200 22.2 4.1 56 8.7 18.8 30.5 SSW | 195 36.8 SSW | 208 17.9 23.2 38.1
2/25/24 - 1100 21.4 2.9 53 7.0 18.0 31.4 SSW | 196 36.6 SSW | 194 17.9 21.8 38.1
2/25/24 - 1000 20.6 1.9 54 6.6 17.3 30.7 SSW | 196 34.8 SSW | 194 17.9 21.0 38.1
2/25/24 - 0900 19.8 0.6 53 5.4 16.5 31.3 SSW | 196 38.1 SSW | 194 17.9 20.2 38.1
2/25/24 - 0800 19.4 1.5 54 5.3 16.2 26.0 SSW | 200 28.1 SSW | 200 17.9 20.2 33.5
2/25/24 - 0700 18.7 0.0 53 4.2 15.5 28.3 SSW | 200 30.6 SSW | 201 17.9 20.2 33.5
2/25/24 - 0600 18.3 -0.8 57 5.6 15.5 29.4 SSW | 199 33.5 SSW | 199 17.9 20.2 33.5
2/25/24 - 0500 18.8 0.7 65 8.8 16.4 26.2 SSW | 195 30.6 SSW | 196 18.0 20.2 30.6
2/25/24 - 0400 19.1 1.2 67 10.1 16.8 25.8 SSW | 198 28.3 SSW | 196 18.9 20.2 29.7
2/25/24 - 0300 19.6 1.8 70 11.5 17.5 26.3 SSW | 196 29.7 SSW | 199 19.0 20.2 29.7
2/25/24 - 0200 19.7 2.1 74 12.8 17.9 25.6 SSW | 198 27.4 SSW | 198 19.5 20.2 27.4
2/25/24 - 0100 19.7 3.3 81 14.9 18.3 21.6 SSW | 196 24.8 SSW | 197 19.5 20.2 24.8
2/25/24 - 0000 19.6 2.8 85 15.8 18.5 22.6 SSW | 200 25.6 SSW | 199 19.2 26.0 32.4
2/24/24 - 2300 20.0 2.0 84 16.0 18.8 27.3 SSW | 197 32.4 SSW | 199 19.2 26.0 32.4
2/24/24 - 2200 19.9 2.0 86 16.4 18.9 26.8 SSW | 196 31.5 SSW | 196 19.2 26.0 31.5
2/24/24 - 2100 20.6 5.2 85 16.8 19.4 19.4 SSW | 194 22.0 SSW | 194 19.2 26.0 29.2
2/24/24 - 2000 21.3 6.9 90 18.7 20.4 17.2 S | 190 19.2 S | 188 19.2 26.0 29.2
2/24/24 - 1900 22.1 7.1 87 18.8 21.0 19.6 S | 184 24.0 S | 181 19.2 26.0 29.2
2/24/24 - 1800 22.4 6.6 84 18.4 21.1 22.4 S | 186 27.6 S | 188 19.2 26.0 29.2
2/24/24 - 1700 22.9 7.1 84 18.9 21.6 22.9 S | 184 29.1 S | 183 19.2 26.0 29.2
2/24/24 - 1600 23.0 7.5 84 18.8 21.6 22.2 S | 182 29.2 S | 189 19.2 26.0 29.2
2/24/24 - 1500 23.3 8.1 83 18.9 21.9 21.3 S | 183 28.6 S | 189 19.2 26.0 28.6
2/24/24 - 1400 23.9 10.0 85 20.0 22.6 18.2 S | 182 26.9 S | 182 19.2 26.0 26.9
2/24/24 - 1300 24.4 12.2 86 20.8 23.2 14.4 S | 184 21.9 S | 180 19.2 26.0 21.9
2/24/24 - 1200 25.0 15.5 88 22.0 23.9 9.2 S | 186 16.5 SSW | 194 19.2 26.0 17.9
2/24/24 - 1100 24.6 - 91 22.4 23.8 3.0 WSW | 249 9.2 SSW | 204 19.2 25.2 17.9
2/24/24 - 1000 23.1 16.0 92 21.1 22.3 5.6 W | 259 10.5 WSW | 256 19.2 24.1 17.9
2/24/24 - 0900 21.7 11.2 91 19.5 20.9 9.6 WSW | 245 13.6 WSW | 237 19.2 22.4 17.9
2/24/24 - 0800 20.5 10.4 91 18.4 19.8 8.5 SSW | 213 10.1 SW | 222 19.2 21.6 17.9
2/24/24 - 0700 19.4 8.2 92 17.6 18.8 10.0 SSW | 201 12.5 SSW | 207 19.2 21.5 17.9
2/24/24 - 0600 19.9 6.5 93 18.1 19.3 14.1 SSW | 205 16.8 SSW | 198 19.6 21.5 17.9
2/24/24 - 0500 20.3 6.6 94 18.8 19.8 14.9 SSW | 200 17.9 SSW | 204 20.0 21.5 17.9
2/24/24 - 0400 20.4 9.2 95 19.1 20.0 10.2 SSW | 193 16.1 SSW | 199 20.0 21.5 16.1
2/24/24 - 0300 20.2 12.6 95 19.0 19.8 5.6 SSW | 192 10.1 SSW | 198 20.0 21.5 13.1
2/24/24 - 0200 20.8 10.8 95 19.5 20.3 8.6 SSW | 198 11.0 SSW | 200 20.3 21.5 13.1
2/24/24 - 0100 21.1 9.8 96 20.1 20.7 10.7 SSW | 192 13.1 SSW | 194 20.9 21.5 13.1
2/24/24 - 0000 21.1 9.4 96 20.1 20.7 11.3 SSW | 199 13.6 SSW | 206 13.7 27.2 29.2
2/23/24 - 2300 21.1 9.1 96 20.2 20.8 12.1 SSW | 200 14.4 SSW | 202 13.7 27.2 29.2
2/23/24 - 2200 21.4 10.2 97 20.6 21.1 10.7 SSW | 200 13.3 SSW | 203 13.7 27.2 29.2
2/23/24 - 2100 21.2 13.1 97 20.4 20.8 6.2 SSW | 207 10.5 SSW | 199 13.7 27.2 29.2
2/23/24 - 2000 19.3 7.7 96 18.4 19.0 10.5 WNW | 303 17.1 NW | 308 13.7 27.2 29.2
2/23/24 - 1900 18.8 5.3 96 17.9 18.5 13.8 NNW | 328 16.7 NNW | 328 13.7 27.2 29.2
2/23/24 - 1800 19.3 4.9 96 18.4 19.0 16.1 NNW | 339 21.0 NNW | 334 13.7 27.2 29.2
2/23/24 - 1700 21.9 7.9 96 21.0 21.5 16.7 WNW | 293 24.1 NNW | 336 13.7 27.2 29.2
2/23/24 - 1600 25.8 - 99 25.5 25.6 2.5 S | 178 8.8 SSW | 193 13.7 27.2 29.2
2/23/24 - 1500 25.2 14.7 98 24.7 24.9 11.2 SSW | 192 18.4 SSW | 202 13.7 27.2 29.2
2/23/24 - 1400 26.4 17.9 98 26.0 26.1 8.2 S | 188 16.1 SSW | 199 13.7 27.2 29.2
2/23/24 - 1300 25.6 16.0 98 25.1 25.3 9.6 SSW | 203 12.4 SSW | 207 13.7 26.1 29.2
2/23/24 - 1200 21.8 10.9 97 21.0 21.5 10.4 W | 267 19.9 WNW | 301 13.7 25.3 29.2
2/23/24 - 1100 18.2 0.5 95 16.8 17.7 23.9 NW | 320 26.2 NW | 319 13.7 18.7 29.2
2/23/24 - 1000 17.4 -1.2 95 16.2 17.1 26.4 NW | 322 28.5 NNW | 328 13.7 17.7 29.2
2/23/24 - 0900 17.3 -1.5 95 16.1 16.9 26.6 NW | 324 29.2 NW | 322 13.7 17.7 29.2
2/23/24 - 0800 17.5 -0.5 96 16.4 17.1 24.1 NW | 322 26.3 NW | 324 13.7 17.7 26.7
2/23/24 - 0700 16.8 -1.0 95 15.7 16.5 23.0 NW | 321 26.7 NW | 323 13.7 17.6 26.7
2/23/24 - 0600 17.0 2.6 96 15.9 16.7 14.6 NW | 322 18.8 NW | 322 13.7 17.6 18.8
2/23/24 - 0500 17.4 12.2 96 16.4 17.0 3.3 NW | 316 8.4 NW | 321 13.7 17.6 12.0
2/23/24 - 0400 16.2 - 95 15.0 15.9 2.1 S | 182 5.7 SSE | 151 13.7 16.6 12.0
2/23/24 - 0300 15.0 6.4 94 13.7 14.7 5.6 SSW | 208 10.3 SW | 217 13.7 15.9 12.0
2/23/24 - 0200 13.9 2.2 94 12.4 13.6 8.7 SW | 218 12.0 SW | 216 13.7 14.7 12.0
2/23/24 - 0100 14.0 - 93 12.4 13.7 1.8 SW | 224 7.2 SW | 215 13.7 14.7 7.2
2/23/24 - 0000 14.8 4.9 94 13.4 14.5 6.8 SSW | 210 9.0 SSW | 210 7.1 19.6 26.4
2/22/24 - 2300 14.1 3.1 93 12.5 13.8 7.9 SSW | 208 9.7 SSW | 210 7.1 19.6 26.4
2/22/24 - 2200 14.2 - 93 12.5 13.8 1.6 WSW | 255 6.4 SSW | 209 7.1 19.6 26.4
2/22/24 - 2100 15.9 8.6 94 14.5 15.5 4.6 WNW | 296 8.6 NW | 308 7.1 19.6 26.4
2/22/24 - 2000 16.4 6.4 95 15.1 16.0 7.2 NW | 313 11.3 NW | 313 7.1 19.6 26.4
2/22/24 - 1900 16.1 6.8 94 14.6 15.7 6.5 WNW | 294 12.6 WNW | 300 7.1 19.6 26.4
2/22/24 - 1800 18.3 10.0 95 17.0 17.9 5.9 SW | 222 8.9 SSW | 196 7.1 19.6 26.4
2/22/24 - 1700 18.9 10.5 95 17.7 18.5 6.1 SSW | 195 10.0 SSW | 193 7.1 19.6 26.4
2/22/24 - 1600 19.0 8.8 96 17.9 18.6 8.4 SSW | 199 12.5 SSW | 192 7.1 19.6 26.4
2/22/24 - 1500 17.5 4.7 95 16.3 17.2 11.8 SSW | 198 17.8 SSW | 200 7.1 18.3 26.4
2/22/24 - 1400 17.2 2.1 94 15.8 16.8 16.1 SSW | 198 21.8 S | 189 7.1 17.8 26.4
2/22/24 - 1300 16.8 2.6 95 15.5 16.4 13.9 SSW | 206 20.3 SSW | 198 7.1 17.8 26.4
2/22/24 - 1200 14.3 -2.3 93 12.7 14.0 17.6 SSW | 203 24.4 SSW | 194 7.1 15.4 26.4
2/22/24 - 1100 12.4 -4.7 92 10.6 12.1 17.4 SSW | 199 23.6 SSW | 194 7.1 13.2 26.4
2/22/24 - 1000 10.7 -6.8 92 8.7 10.4 17.2 SSW | 202 24.0 SSW | 194 7.1 11.5 26.4
2/22/24 - 0900 9.9 -9.8 91 7.8 9.6 21.8 SSW | 196 26.4 SSW | 197 7.1 11.2 26.4
2/22/24 - 0800 9.3 -8.3 91 7.2 9.1 16.7 SSW | 203 25.7 SSW | 197 7.1 11.2 25.7
2/22/24 - 0700 8.4 -8.4 90 6.2 8.2 14.5 SSW | 205 18.3 SSW | 204 7.1 11.2 20.8
2/22/24 - 0600 7.6 -11.0 90 5.3 7.5 17.8 SSW | 198 20.8 SSW | 193 7.1 11.2 20.8
2/22/24 - 0500 7.2 -8.5 90 4.8 7.1 12.2 SSW | 197 15.8 SSW | 196 7.1 11.2 15.8
2/22/24 - 0400 7.4 -8.3 90 5.0 7.3 12.2 SSW | 207 14.9 SSW | 206 7.3 11.2 14.9
2/22/24 - 0300 8.1 -1.8 90 5.7 7.9 5.7 WSW | 255 11.0 SSW | 213 7.4 11.2 12.1
2/22/24 - 0200 10.1 -0.5 91 7.9 9.8 6.6 W | 262 11.6 SW | 225 9.0 11.2 12.1
2/22/24 - 0100 11.1 -1.6 92 9.1 10.8 9.2 SSW | 209 12.1 SSW | 200 10.8 11.2 12.1
2/22/24 - 0000 10.9 -4.6 91 8.9 10.6 13.3 SSW | 199 16.3 SSW | 197 9.6 18.7 54.8
2/21/24 - 2300 10.9 -4.4 91 8.9 10.6 13.2 SSW | 203 16.2 SSW | 203 9.6 18.7 54.8
2/21/24 - 2200 10.2 -2.5 91 8.2 10.0 8.9 SSW | 211 12.1 SW | 215 9.6 18.7 54.8
2/21/24 - 2100 10.6 - 91 8.5 10.3 3.0 WSW | 241 7.3 SSW | 200 9.6 18.7 54.8
2/21/24 - 2000 11.5 1.4 92 9.5 11.2 6.4 W | 264 11.8 SSW | 203 11.0 18.7 54.8
2/21/24 - 1900 13.0 -2.3 92 11.1 12.6 14.0 SSW | 196 17.2 SSW | 193 12.0 18.7 54.8
2/21/24 - 1800 16.0 1.8 94 14.7 15.7 13.6 SSW | 197 18.2 S | 170 12.0 18.7 54.8
2/21/24 - 1700 17.0 0.5 95 15.8 16.6 19.4 SSW | 196 29.3 SSW | 198 12.0 18.7 54.8
2/21/24 - 1600 18.1 -0.9 96 17.1 17.8 28.3 SSW | 192 43.2 SSW | 193 12.0 18.7 54.8
2/21/24 - 1500 17.6 -3.4 96 16.6 17.3 35.6 S | 190 50.7 S | 184 12.0 18.7 54.8
2/21/24 - 1400 14.9 -7.8 94 13.5 14.6 39.4 S | 190 53.1 S | 183 12.0 16.4 54.8
2/21/24 - 1300 14.2 -9.5 93 12.6 13.8 42.5 S | 185 54.8 S | 191 12.0 16.4 54.8
2/21/24 - 1200 14.6 -7.7 94 13.2 14.3 36.8 S | 183 47.0 S | 186 12.0 16.4 53.7
2/21/24 - 1100 13.7 -8.7 93 12.2 13.4 35.8 S | 191 44.1 S | 187 12.0 16.4 53.7
2/21/24 - 1000 13.2 -9.1 93 11.6 12.9 34.6 SSW | 193 40.5 S | 187 12.0 16.4 53.7
2/21/24 - 0900 12.7 -11.0 93 11.1 12.4 39.8 S | 189 44.6 SSW | 193 12.0 16.4 53.7
2/21/24 - 0800 12.2 -12.5 93 10.4 11.9 43.4 S | 189 51.8 S | 191 12.0 16.4 53.7
2/21/24 - 0700 12.4 -12.5 93 10.8 12.2 45.0 S | 191 52.4 SSW | 194 12.2 16.4 53.7
2/21/24 - 0600 13.0 -10.4 93 11.4 12.8 39.3 SSW | 192 47.8 SSW | 197 12.7 16.4 53.7
2/21/24 - 0500 13.4 -8.1 93 11.8 13.1 31.8 S | 184 39.2 SSW | 194 13.2 16.4 53.7
2/21/24 - 0400 14.4 -6.5 94 13.0 14.1 30.9 S | 181 44.9 S | 180 13.8 16.4 53.7
2/21/24 - 0300 15.1 -5.1 94 13.8 14.8 29.0 S | 181 45.6 S | 173 14.8 16.4 53.7
2/21/24 - 0200 15.2 -6.8 94 13.9 14.9 36.3 S | 184 53.7 SSW | 193 15.1 16.4 53.7
2/21/24 - 0100 15.9 -5.3 95 14.7 15.6 34.1 S | 184 52.5 SSW | 202 15.4 16.4 52.5
2/21/24 - 0000 16.2 -4.4 95 15.0 15.9 32.4 S | 182 54.8 SSW | 194 13.1 21.8 71.1
2/20/24 - 2300 16.6 -7.7 95 15.4 16.2 51.0 S | 191 70.0 S | 188 13.1 21.8 71.1
2/20/24 - 2200 17.0 -6.6 95 15.9 16.7 48.0 S | 190 71.1 SSW | 198 13.1 21.8 71.1
2/20/24 - 2100 17.0 -3.6 95 15.9 16.7 33.3 S | 189 52.7 S | 183 13.1 21.8 52.7
2/20/24 - 2000 16.6 -3.7 95 15.4 16.3 31.2 S | 189 42.7 SSW | 196 13.1 21.8 51.4
2/20/24 - 1900 16.3 -2.6 95 15.1 16.0 26.0 S | 184 36.1 S | 190 13.1 21.8 51.4
2/20/24 - 1800 17.0 0.0 95 15.9 16.7 20.9 S | 181 38.0 S | 179 13.1 21.8 51.4
2/20/24 - 1700 18.1 -0.3 96 17.1 17.8 26.3 S | 183 41.4 SSW | 193 13.1 21.8 51.4
2/20/24 - 1600 19.6 0.7 96 18.8 19.3 30.3 S | 187 51.4 S | 190 13.1 21.8 51.4
2/20/24 - 1500 21.1 3.4 97 20.4 20.8 27.4 S | 191 40.6 SSW | 204 13.1 21.8 45.8
2/20/24 - 1400 21.6 4.0 98 21.1 21.3 28.0 SSW | 199 41.1 SSW | 208 13.1 21.8 45.8
2/20/24 - 1300 20.1 1.6 97 19.3 19.8 29.0 SSW | 207 37.0 SW | 221 13.1 21.7 45.8
2/20/24 - 1200 21.0 1.9 97 20.4 20.7 33.1 SSW | 210 44.1 SSW | 201 13.1 21.7 45.8
2/20/24 - 1100 21.4 2.5 98 20.9 21.2 33.4 S | 189 45.8 SSW | 196 13.1 21.7 45.8
2/20/24 - 1000 20.0 1.6 97 19.3 19.7 28.8 SSW | 196 37.2 S | 189 13.1 20.7 44.7
2/20/24 - 0900 17.1 -2.4 96 16.1 16.8 29.2 SSW | 197 36.5 SSW | 194 13.1 18.8 44.7
2/20/24 - 0800 14.8 -6.0 94 13.4 14.5 30.8 S | 191 39.5 S | 182 13.1 15.9 44.7
2/20/24 - 0700 14.0 -7.1 94 12.5 13.7 31.0 S | 187 44.5 S | 183 13.1 14.1 44.7
2/20/24 - 0600 13.8 -5.8 94 12.2 13.5 25.3 S | 183 38.8 SSW | 192 13.1 13.9 44.7
2/20/24 - 0500 13.4 -7.0 93 11.9 13.2 27.9 S | 188 38.2 S | 185 13.1 13.7 44.7
2/20/24 - 0400 13.4 -6.8 93 11.8 13.1 27.0 S | 189 40.1 SSW | 202 13.1 13.7 44.7
2/20/24 - 0300 13.3 -6.0 93 11.7 13.0 24.1 S | 191 31.5 SSW | 198 13.1 13.7 44.7
2/20/24 - 0200 13.3 -8.3 93 11.6 13.0 31.6 SSW | 202 44.7 SSW | 208 13.1 13.7 44.7
2/20/24 - 0100 13.7 -6.9 94 12.1 13.4 28.5 SSW | 194 41.9 SSW | 203 13.6 13.7 41.9
2/20/24 - 0000 13.6 -7.8 93 12.1 13.3 31.8 SSW | 194 42.8 SSW | 196 13.6 22.8 111.8
2/19/24 - 2300 13.8 -7.9 94 12.3 13.5 33.1 SSW | 194 48.0 SSW | 211 13.7 22.8 111.8
2/19/24 - 2200 14.4 -8.9 94 12.9 14.1 40.9 SSW | 197 53.1 SSW | 200 14.0 22.8 111.8
2/19/24 - 2100 15.5 -7.4 94 14.1 15.1 40.7 SSW | 193 61.6 SSW | 213 15.0 22.8 111.8
2/19/24 - 2000 15.7 -8.1 94 14.4 15.4 45.8 SSW | 192 66.6 SSW | 213 15.2 22.8 111.8
2/19/24 - 1900 16.6 -6.0 95 15.4 16.3 41.8 SSW | 194 72.8 SW | 217 15.2 22.8 111.8
2/19/24 - 1800 16.3 -5.2 95 15.2 16.0 36.0 S | 187 56.8 SSW | 208 15.2 22.8 111.8
2/19/24 - 1700 15.3 -7.3 94 14.0 15.0 39.3 S | 184 67.5 SSW | 197 15.2 22.8 111.8
2/19/24 - 1600 16.1 -7.2 94 14.8 15.8 44.4 S | 184 66.3 SSW | 194 15.3 22.8 111.8
2/19/24 - 1500 19.0 -3.9 96 18.0 18.6 48.4 S | 186 80.3 S | 189 17.2 22.8 111.8
2/19/24 - 1400 19.1 -2.7 96 18.2 18.8 42.5 SSW | 192 60.0 SW | 218 18.8 22.8 111.8
2/19/24 - 1300 19.8 -4.7 97 19.0 19.5 61.8 S | 188 83.5 S | 175 18.9 22.8 111.8
2/19/24 - 1200 19.5 -5.9 96 18.7 19.2 67.7 S | 185 98.3 SSW | 192 19.4 22.8 111.8
2/19/24 - 1100 20.1 -4.7 97 19.4 19.8 65.1 S | 184 102.5 SSW | 212 19.8 22.8 111.8
2/19/24 - 1000 20.2 -3.8 97 19.4 19.8 58.4 S | 185 93.3 SSW | 194 19.8 22.8 111.8
2/19/24 - 0900 20.6 -4.2 97 19.9 20.3 66.6 S | 188 98.9 S | 187 20.2 22.8 111.8
2/19/24 - 0800 20.8 -3.1 97 20.2 20.6 60.8 S | 184 92.9 S | 183 20.8 22.8 111.8
2/19/24 - 0700 21.2 -2.0 97 20.6 20.9 56.8 S | 184 96.6 S | 184 20.8 22.8 111.8
2/19/24 - 0600 22.0 -0.9 98 21.4 21.7 57.1 S | 185 111.8 SSW | 194 21.0 22.8 111.8
2/19/24 - 0500 21.7 -1.6 98 21.2 21.4 59.4 SSW | 194 80.1 SSW | 200 21.0 22.8 80.1
2/19/24 - 0400 21.8 -0.6 98 21.2 21.5 52.4 S | 191 71.0 SSW | 193 21.0 22.8 78.1
2/19/24 - 0300 21.2 0.8 97 20.5 20.8 39.4 SSW | 194 68.8 S | 190 21.0 22.8 78.1
2/19/24 - 0200 22.0 2.3 98 21.4 21.7 37.8 SSW | 192 58.2 SSW | 207 21.0 22.8 78.1
2/19/24 - 0100 22.0 0.8 98 21.5 21.7 45.8 SW | 215 78.1 SSW | 201 21.0 22.8 78.1
2/19/24 - 0000 20.6 -0.1 97 19.9 20.3 40.2 SSW | 211 64.8 SSW | 212 14.3 21.0 72.0
2/18/24 - 2300 20.4 0.1 97 19.7 20.1 37.5 SW | 222 52.8 SW | 226 14.3 21.0 72.0
2/18/24 - 2200 19.2 -1.7 97 18.4 18.9 38.6 SW | 215 50.8 SW | 224 14.3 21.0 72.0
2/18/24 - 2100 18.8 -1.9 96 17.8 18.4 36.3 SSW | 200 45.0 SSW | 209 14.3 21.0 72.0
2/18/24 - 2000 19.0 -2.0 96 18.0 18.6 38.4 SSW | 200 50.5 SSW | 208 14.3 21.0 72.0
2/18/24 - 1900 19.9 -2.1 97 19.2 19.6 45.8 SSW | 197 54.4 SSW | 204 14.3 21.0 72.0
2/18/24 - 1800 17.9 -6.2 95 16.8 17.5 52.9 SSW | 202 61.6 SSW | 203 14.3 21.0 72.0
2/18/24 - 1700 19.6 -2.8 96 18.7 19.3 47.3 SSW | 192 62.7 SSW | 208 14.3 21.0 72.0
2/18/24 - 1600 20.6 -0.5 97 19.8 20.3 42.1 S | 189 50.4 SSW | 192 14.3 21.0 72.0
2/18/24 - 1500 19.6 -1.1 96 18.8 19.3 38.7 S | 189 48.6 SSW | 196 14.3 20.1 72.0
2/18/24 - 1400 18.5 -3.8 96 17.6 18.2 44.2 SSW | 192 52.7 S | 187 14.3 19.7 72.0
2/18/24 - 1300 17.9 -4.0 95 16.8 17.5 40.6 SSW | 197 48.6 SSW | 206 14.3 19.7 72.0
2/18/24 - 1200 16.7 -4.2 95 15.4 16.3 34.1 SSW | 197 42.5 SSW | 202 14.3 19.7 72.0
2/18/24 - 1100 15.6 -5.7 94 14.3 15.3 34.4 SSW | 199 39.1 SSW | 196 14.3 19.7 72.0
2/18/24 - 1000 14.7 -8.5 94 13.1 14.3 40.9 SSW | 204 53.2 SSW | 206 14.3 19.7 72.0
2/18/24 - 0900 16.1 -7.2 94 14.7 15.7 44.4 SSW | 199 51.6 SSW | 206 14.6 19.7 72.0
2/18/24 - 0800 17.7 -5.1 95 16.6 17.4 44.9 SSW | 193 53.6 SSW | 192 17.4 19.7 72.0
2/18/24 - 0700 18.1 -4.8 96 17.0 17.8 46.7 S | 190 56.0 S | 191 17.8 19.7 72.0
2/18/24 - 0600 18.3 -4.2 96 17.3 17.9 44.3 S | 190 56.2 SSW | 192 18.0 19.7 72.0
2/18/24 - 0500 18.1 -4.1 96 17.1 17.8 43.0 SSW | 192 56.2 SSW | 196 18.0 19.7 72.0
2/18/24 - 0400 18.1 -4.8 96 17.1 17.8 46.9 SSW | 194 61.4 SSW | 196 18.0 19.7 72.0
2/18/24 - 0300 18.8 -5.1 96 17.8 18.5 54.4 S | 188 72.0 S | 189 18.3 19.7 72.0
2/18/24 - 0200 19.6 -3.3 96 18.7 19.2 50.0 S | 184 61.3 S | 185 18.9 19.7 61.3
2/18/24 - 0100 19.2 -2.8 96 18.3 18.8 44.0 S | 188 61.1 SSW | 196 18.9 19.5 61.1
2/18/24 - 0000 19.1 -1.5 96 18.1 18.7 36.5 S | 185 49.9 SSW | 206 17.2 21.8 74.1
2/17/24 - 2300 19.9 -3.3 97 19.1 19.6 52.5 SSW | 198 74.1 SSW | 204 17.2 21.8 74.1
2/17/24 - 2200 19.1 -3.3 96 18.2 18.8 46.2 SSW | 192 66.3 SSW | 204 17.2 21.8 72.7
2/17/24 - 2100 19.4 -2.0 96 18.5 19.1 41.5 S | 188 66.3 S | 189 17.2 21.8 72.7
2/17/24 - 2000 17.7 -4.9 96 16.7 17.4 43.9 SSW | 197 69.2 SW | 218 17.2 21.8 72.7
2/17/24 - 1900 17.3 -4.5 95 16.2 17.0 39.4 SSW | 194 47.2 SSW | 193 17.2 21.8 72.7
2/17/24 - 1800 17.7 -5.1 95 16.6 17.4 45.3 S | 190 58.9 SSW | 192 17.5 21.8 72.7
2/17/24 - 1700 18.2 -5.0 96 17.1 17.8 48.0 S | 186 58.0 S | 187 17.9 21.8 72.7
2/17/24 - 1600 18.1 -5.0 96 17.0 17.8 47.6 SSW | 194 58.8 S | 189 18.0 21.8 72.7
2/17/24 - 1500 18.2 -6.3 96 17.1 17.8 56.7 S | 188 71.2 S | 179 18.1 21.8 72.7
2/17/24 - 1400 19.0 -5.4 96 18.0 18.6 57.9 S | 188 72.7 S | 188 18.2 21.8 72.7
2/17/24 - 1300 21.0 -1.4 97 20.3 20.7 51.0 S | 189 60.1 S | 185 19.0 21.8 60.1
2/17/24 - 1200 21.4 0.4 97 20.8 21.1 44.0 SSW | 194 58.6 SSW | 194 19.0 21.8 58.6
2/17/24 - 1100 20.9 -0.4 97 20.1 20.5 43.8 SSW | 196 55.7 SSW | 196 19.0 21.8 58.6
2/17/24 - 1000 20.5 -0.9 96 19.6 20.1 43.8 SSW | 195 58.6 SSW | 198 19.0 21.8 58.6
2/17/24 - 0900 19.7 -0.3 95 18.5 19.3 35.0 SSW | 196 49.6 SSW | 202 19.0 21.8 49.6
2/17/24 - 0800 19.7 0.5 94 18.3 19.2 31.5 SSW | 195 40.0 SSW | 193 19.0 21.8 40.0
2/17/24 - 0700 19.9 1.7 92 18.0 19.3 28.0 SSW | 195 33.1 SSW | 193 19.0 21.8 37.6
2/17/24 - 0600 20.0 1.8 90 17.5 19.2 28.2 SSW | 196 32.5 SSW | 200 19.0 21.8 37.6
2/17/24 - 0500 20.2 1.7 88 17.3 19.3 29.6 SSW | 202 37.1 SSW | 204 19.0 21.8 37.6
2/17/24 - 0400 19.4 1.0 92 17.4 18.7 27.9 SSW | 196 36.1 SSW | 203 19.0 21.8 37.6
2/17/24 - 0300 20.4 1.9 92 18.4 19.7 29.6 S | 185 37.6 S | 181 19.7 21.8 37.6
2/17/24 - 0200 21.2 3.8 92 19.2 20.5 26.8 S | 183 35.5 S | 180 20.6 21.8 35.5
2/17/24 - 0100 21.5 5.4 92 19.4 20.8 22.3 S | 184 30.0 S | 187 21.2 21.8 30.0
2/17/24 - 0000 22.1 7.4 89 19.2 21.2 19.0 S | 185 23.8 S | 189 15.1 24.9 37.7
2/16/24 - 2300 22.1 7.6 87 18.8 21.0 18.4 SSW | 195 22.8 SSW | 194 15.1 24.9 37.7
2/16/24 - 2200 21.8 7.9 89 19.1 20.9 16.6 SSW | 201 19.4 SSW | 204 15.1 24.9 37.7
2/16/24 - 2100 21.6 7.8 94 20.2 21.1 16.2 S | 188 18.9 SSW | 192 15.1 24.9 37.7
2/16/24 - 2000 20.3 4.3 90 17.7 19.5 20.7 S | 186 25.6 S | 172 15.1 24.9 37.7
2/16/24 - 1900 21.1 4.1 84 17.2 19.9 25.0 S | 186 29.8 S | 187 15.1 24.9 37.7
2/16/24 - 1800 21.8 5.6 86 18.1 20.6 23.3 S | 188 28.1 S | 188 15.1 24.9 37.7
2/16/24 - 1700 22.3 6.0 86 18.7 21.1 23.9 S | 183 28.4 S | 179 15.1 24.9 37.7
2/16/24 - 1600 22.2 5.9 87 18.9 21.1 24.0 S | 191 30.4 SSW | 193 15.1 24.9 37.7
2/16/24 - 1500 22.4 4.3 87 19.0 21.3 30.6 S | 186 37.7 S | 183 15.1 24.9 37.7
2/16/24 - 1400 24.4 10.0 87 21.2 23.3 20.3 S | 185 27.3 S | 185 15.1 24.9 29.3
2/16/24 - 1300 24.0 10.3 87 20.8 22.9 17.7 S | 188 25.1 S | 189 15.1 24.7 29.3
2/16/24 - 1200 23.6 9.4 88 20.4 22.5 18.5 S | 187 24.8 SSW | 192 15.1 24.2 29.3
2/16/24 - 1100 23.9 10.5 88 21.0 22.9 16.7 S | 191 22.7 SSW | 199 15.1 24.1 29.3
2/16/24 - 1000 23.9 12.4 89 21.1 22.9 12.4 S | 190 15.6 S | 191 15.1 24.1 29.3
2/16/24 - 0900 23.1 11.9 90 20.6 22.2 11.4 S | 184 13.6 S | 183 15.1 23.7 29.3
2/16/24 - 0800 20.9 8.1 92 18.9 20.2 13.5 S | 191 16.7 SSW | 192 15.1 21.6 29.3
2/16/24 - 0700 20.5 7.3 92 18.6 19.9 14.1 S | 188 17.0 S | 191 15.1 20.8 29.3
2/16/24 - 0600 19.5 7.1 93 17.7 18.9 12.0 S | 184 19.2 SSW | 197 15.1 20.1 29.3
2/16/24 - 0500 18.3 3.6 91 16.2 17.6 15.9 SSW | 195 18.6 SSW | 195 15.1 18.5 29.3
2/16/24 - 0400 17.1 1.2 91 15.0 16.5 18.1 S | 191 21.6 S | 186 15.1 17.9 29.3
2/16/24 - 0300 15.7 -1.2 91 13.5 15.2 19.5 SSW | 195 22.6 SSW | 194 15.1 16.0 29.3
2/16/24 - 0200 15.5 -2.2 92 13.6 15.0 21.3 SSW | 194 27.0 SSW | 194 15.1 15.7 29.3
2/16/24 - 0100 15.4 -3.1 93 13.6 15.0 23.6 SSW | 192 29.3 S | 190 15.1 15.7 29.3
2/16/24 - 0000 15.8 0.7 93 14.2 15.4 15.2 SSW | 201 20.0 SSW | 198 12.6 17.4 80.7
2/15/24 - 2300 16.6 2.5 94 15.1 16.2 13.6 SSE | 167 20.0 SE | 136 12.6 17.4 80.7
2/15/24 - 2200 16.6 3.1 93 15.0 16.2 12.6 SE | 132 21.3 ESE | 117 12.6 17.4 80.7
2/15/24 - 2100 16.1 1.3 94 14.6 15.7 14.8 SE | 145 32.4 ESE | 120 12.6 17.4 80.7
2/15/24 - 2000 15.6 4.4 94 14.2 15.3 8.7 SSE | 166 21.9 SSE | 148 12.6 17.4 80.7
2/15/24 - 1900 16.5 5.2 95 15.2 16.2 9.1 SSW | 198 13.0 SSW | 202 12.6 17.4 80.7
2/15/24 - 1800 15.4 1.1 94 14.0 15.1 13.5 SSW | 207 17.4 SSW | 208 12.6 17.4 80.7
2/15/24 - 1700 15.9 -0.1 94 14.5 15.6 17.5 SSW | 198 21.2 SSW | 196 12.6 17.4 80.7
2/15/24 - 1600 16.9 0.4 94 15.6 16.5 19.4 SSW | 194 26.7 SSW | 198 12.6 17.4 80.7
2/15/24 - 1500 17.0 -2.0 95 15.7 16.6 26.8 SSW | 199 37.5 SSW | 194 12.6 17.4 80.7
2/15/24 - 1400 16.8 -5.2 95 15.6 16.5 39.4 SSW | 192 48.6 S | 186 12.6 17.1 80.7
2/15/24 - 1300 16.2 -3.8 94 14.8 15.9 30.1 SSW | 192 40.2 SSW | 196 12.6 16.9 80.7
2/15/24 - 1200 15.2 -4.2 94 13.8 14.9 26.5 S | 182 41.6 SSE | 165 12.6 16.9 80.7
2/15/24 - 1100 14.2 -9.4 93 12.7 13.9 42.0 S | 188 48.4 SSW | 193 12.6 16.9 80.7
2/15/24 - 1000 13.2 -10.8 93 11.4 12.8 41.7 SSW | 193 53.5 SSW | 193 12.6